Time;durP1;ratioP1;P1;durP2;ratioP2;P2;SDS_P1;SDS_P2;PMS_P1;PMS_P2;Temp;Humidity;BMP_temperature;BMP_pressure;BME280_temperature;BME280_humidity;BME280_pressure;Samples;Min_cycle;Max_cycle;Signal;HPM_P1;HPM_P2
2021/10/15 00:00:57;;;;;;;5.70;2.80;;;12.30;99.90;;;;;;5029234;28;20520;-77
2021/10/15 00:03:23;;;;;;;5.07;3.70;;;12.20;99.90;;;;;;5029148;28;20235;-78
2021/10/15 00:05:49;;;;;;;6.63;3.07;;;12.10;99.90;;;;;;5029067;28;20467;-77
2021/10/15 00:08:14;;;;;;;4.40;2.63;;;12.10;99.90;;;;;;5029264;28;20819;-77
2021/10/15 00:10:43;;;;;;;4.60;2.87;;;12.10;99.90;;;;;;5028954;28;20177;-77
2021/10/15 00:13:09;;;;;;;6.13;3.07;;;12.00;99.90;;;;;;5028885;28;20177;-78
2021/10/15 00:15:35;;;;;;;4.93;2.90;;;12.10;99.90;;;;;;5028741;28;20566;-77
2021/10/15 00:18:01;;;;;;;5.97;2.70;;;12.00;99.90;;;;;;5028001;28;20267;-78
2021/10/15 00:20:26;;;;;;;4.50;3.20;;;12.00;99.90;;;;;;5028746;28;20177;-78
2021/10/15 00:22:52;;;;;;;6.20;2.73;;;12.00;99.90;;;;;;5028803;28;20181;-77
2021/10/15 00:25:18;;;;;;;8.50;3.40;;;12.00;99.90;;;;;;5028572;28;20197;-77
2021/10/15 00:27:43;;;;;;;5.97;3.07;;;11.90;99.90;;;;;;5028744;28;20656;-78
2021/10/15 00:30:10;;;;;;;7.13;2.80;;;11.80;99.90;;;;;;5028532;28;20184;-78
2021/10/15 00:32:38;;;;;;;4.33;2.97;;;11.80;99.90;;;;;;5028517;28;20181;-77
2021/10/15 00:35:04;;;;;;;9.97;3.30;;;11.80;99.90;;;;;;5028407;28;20471;-78
2021/10/15 00:37:30;;;;;;;8.67;3.37;;;11.70;99.90;;;;;;5028423;28;20434;-78
2021/10/15 00:39:56;;;;;;;8.70;2.73;;;11.80;99.90;;;;;;5028506;28;20423;-78
2021/10/15 00:42:22;;;;;;;6.30;2.90;;;11.70;99.90;;;;;;5028246;28;20193;-77
2021/10/15 00:44:47;;;;;;;4.60;2.83;;;11.70;99.90;;;;;;5028393;28;20299;-77
2021/10/15 00:47:13;;;;;;;4.80;3.00;;;11.60;99.90;;;;;;5028523;28;20559;-77
2021/10/15 00:49:39;;;;;;;4.20;2.40;;;11.70;99.90;;;;;;5028295;28;20598;-78
2021/10/15 00:52:07;;;;;;;4.90;3.20;;;11.60;99.90;;;;;;5028228;28;20291;-78
2021/10/15 00:54:33;;;;;;;4.30;2.33;;;11.60;99.90;;;;;;5028101;28;20300;-78
2021/10/15 00:56:59;;;;;;;6.50;2.90;;;11.60;99.90;;;;;;5028161;28;20511;-78
2021/10/15 00:59:24;;;;;;;4.80;2.60;;;11.60;99.90;;;;;;5028113;28;20177;-79
2021/10/15 01:01:50;;;;;;;6.07;2.77;;;11.50;99.90;;;;;;5027926;28;20181;-78
2021/10/15 01:04:17;;;;;;;6.10;3.23;;;11.40;99.90;;;;;;5028045;28;20680;-77
2021/10/15 01:06:43;;;;;;;8.67;3.03;;;11.40;99.90;;;;;;5027870;28;20181;-78
2021/10/15 01:09:09;;;;;;;5.43;2.90;;;11.40;99.90;;;;;;5027795;28;20444;-77
2021/10/15 01:11:35;;;;;;;6.93;3.50;;;11.40;99.90;;;;;;5027957;28;20431;-78
2021/10/15 01:14:03;;;;;;;5.00;3.30;;;11.30;99.90;;;;;;5027610;28;20216;-78
2021/10/15 01:16:31;;;;;;;6.03;2.73;;;11.30;99.90;;;;;;5027874;28;20327;-78
2021/10/15 01:19:00;;;;;;;5.90;3.50;;;11.30;99.90;;;;;;5027694;28;20424;-78
2021/10/15 01:21:27;;;;;;;6.67;2.97;;;11.30;99.90;;;;;;5027959;28;20936;-77
2021/10/15 01:23:54;;;;;;;8.30;3.10;;;11.30;99.90;;;;;;5027405;28;20427;-79
2021/10/15 01:26:20;;;;;;;8.50;3.17;;;11.30;99.90;;;;;;5027680;28;20783;-77
2021/10/15 01:28:45;;;;;;;5.27;2.90;;;11.30;99.90;;;;;;5027255;28;20430;-78
2021/10/15 01:31:11;;;;;;;6.10;3.53;;;11.30;99.90;;;;;;5027821;28;20466;-78
2021/10/15 01:33:37;;;;;;;8.10;3.80;;;11.30;99.90;;;;;;5027274;28;20279;-77
2021/10/15 01:36:03;;;;;;;4.40;3.00;;;11.30;99.90;;;;;;5027480;28;20193;-77
2021/10/15 01:38:29;;;;;;;5.20;3.03;;;11.20;99.90;;;;;;5027419;28;20177;-77
2021/10/15 01:40:55;;;;;;;5.80;3.70;;;11.30;99.90;;;;;;5028080;28;20440;-78
2021/10/15 01:43:24;;;;;;;9.30;4.10;;;11.20;99.90;;;;;;5027231;28;20458;-77
2021/10/15 01:45:50;;;;;;;5.40;3.20;;;11.20;99.90;;;;;;5027186;28;20444;-78
2021/10/15 01:48:16;;;;;;;5.37;3.20;;;11.10;99.90;;;;;;5027211;28;20416;-78
2021/10/15 01:50:45;;;;;;;9.40;3.00;;;11.10;99.90;;;;;;5027208;28;20412;-78
2021/10/15 01:53:12;;;;;;;6.63;3.30;;;11.20;99.90;;;;;;5026953;28;20424;-78
2021/10/15 01:55:38;;;;;;;6.80;3.03;;;11.10;99.90;;;;;;5026923;28;20486;-78
2021/10/15 01:58:04;;;;;;;6.67;3.43;;;11.10;99.90;;;;;;5027380;28;20412;-77
2021/10/15 02:00:30;;;;;;;9.93;4.20;;;11.10;99.90;;;;;;5027021;28;20423;-77
2021/10/15 02:02:56;;;;;;;8.93;3.70;;;11.10;99.90;;;;;;5027184;28;20462;-78
2021/10/15 02:05:22;;;;;;;4.77;3.40;;;11.10;99.90;;;;;;5026974;28;20452;-78
2021/10/15 02:07:47;;;;;;;6.50;3.67;;;11.10;99.90;;;;;;5027139;28;20201;-78
2021/10/15 02:10:16;;;;;;;5.57;3.77;;;11.10;99.90;;;;;;5026854;28;20185;-77
2021/10/15 02:12:42;;;;;;;5.93;3.30;;;11.00;99.90;;;;;;5026579;28;20600;-78
2021/10/15 02:15:09;;;;;;;5.57;4.13;;;11.10;99.90;;;;;;5026463;28;20479;-78
2021/10/15 02:17:35;;;;;;;7.77;3.20;;;11.10;99.90;;;;;;5026744;28;20423;-78
2021/10/15 02:20:04;;;;;;;6.03;3.63;;;11.00;99.90;;;;;;5026592;28;20561;-78
2021/10/15 02:22:29;;;;;;;6.47;3.00;;;11.00;99.90;;;;;;5026643;28;20511;-78
2021/10/15 02:24:55;;;;;;;5.70;3.47;;;11.00;99.90;;;;;;5026428;28;20538;-78
2021/10/15 02:27:21;;;;;;;6.50;3.30;;;11.00;99.90;;;;;;5026645;28;20185;-78
2021/10/15 02:29:47;;;;;;;6.30;3.50;;;10.90;99.90;;;;;;5026561;28;20189;-78
2021/10/15 02:32:12;;;;;;;5.70;2.87;;;10.90;99.90;;;;;;5026652;28;20205;-77
2021/10/15 02:34:38;;;;;;;5.60;3.90;;;10.90;99.90;;;;;;5026448;28;20220;-78
2021/10/15 02:37:04;;;;;;;6.33;2.73;;;10.90;99.90;;;;;;5026487;28;20181;-77
2021/10/15 02:39:30;;;;;;;9.13;3.60;;;10.90;99.90;;;;;;5026516;28;20181;-78
2021/10/15 02:41:56;;;;;;;5.43;3.50;;;10.80;99.90;;;;;;5026305;28;20281;-77
2021/10/15 02:44:22;;;;;;;5.70;3.40;;;10.70;99.90;;;;;;5026433;28;20486;-77
2021/10/15 02:46:48;;;;;;;4.60;2.90;;;10.80;99.90;;;;;;5026357;28;20975;-78
2021/10/15 02:49:13;;;;;;;6.10;3.40;;;10.70;99.90;;;;;;5026633;28;20436;-77
2021/10/15 02:51:39;;;;;;;9.20;3.57;;;10.60;99.90;;;;;;5026316;28;20275;-77
2021/10/15 02:54:05;;;;;;;7.40;3.53;;;10.60;99.90;;;;;;5026472;28;20212;-77
2021/10/15 02:56:31;;;;;;;8.57;3.53;;;10.60;99.90;;;;;;5026362;28;20212;-77
2021/10/15 02:58:57;;;;;;;5.90;3.70;;;10.70;99.90;;;;;;5026299;28;20431;-77
2021/10/15 03:01:26;;;;;;;5.37;3.20;;;10.70;99.90;;;;;;5026278;28;20416;-77
2021/10/15 03:03:52;;;;;;;6.40;3.50;;;10.80;99.90;;;;;;5026431;28;20738;-77
2021/10/15 03:06:18;;;;;;;6.57;3.17;;;10.80;99.90;;;;;;5026182;28;20428;-77
2021/10/15 03:08:44;;;;;;;4.93;3.60;;;10.80;99.90;;;;;;5026189;28;20679;-77
2021/10/15 03:11:10;;;;;;;9.37;3.63;;;10.90;99.90;;;;;;5026151;28;20420;-77
2021/10/15 03:13:36;;;;;;;7.30;3.50;;;10.90;99.90;;;;;;5026027;28;20427;-77
2021/10/15 03:16:01;;;;;;;4.80;3.40;;;10.90;99.90;;;;;;5026188;28;20440;-77
2021/10/15 03:18:27;;;;;;;6.70;3.30;;;10.90;99.90;;;;;;5026132;28;20192;-78
2021/10/15 03:20:53;;;;;;;9.10;3.90;;;11.00;99.90;;;;;;5026060;28;20188;-78
2021/10/15 03:23:19;;;;;;;7.00;3.80;;;10.90;99.90;;;;;;5025946;28;20272;-78
2021/10/15 03:25:44;;;;;;;5.13;3.40;;;10.90;99.90;;;;;;5026073;28;20255;-77
2021/10/15 03:28:10;;;;;;;7.03;3.80;;;10.90;99.90;;;;;;5026041;28;20189;-77
2021/10/15 03:30:36;;;;;;;9.07;3.87;;;10.90;99.90;;;;;;5026218;28;20196;-77
2021/10/15 03:33:03;;;;;;;7.47;3.50;;;10.90;99.90;;;;;;5026122;28;20185;-78
2021/10/15 03:35:29;;;;;;;8.27;3.90;;;10.90;99.90;;;;;;5025857;28;20225;-77
2021/10/15 03:37:55;;;;;;;6.67;3.93;;;11.00;99.90;;;;;;5026009;28;20416;-78
2021/10/15 03:40:21;;;;;;;7.67;3.17;;;11.00;99.90;;;;;;5025989;28;20434;-77
2021/10/15 03:42:47;;;;;;;5.00;3.57;;;10.90;99.90;;;;;;5025856;28;20641;-77
2021/10/15 03:45:13;;;;;;;7.70;3.40;;;11.00;99.90;;;;;;5025892;28;20451;-78
2021/10/15 03:47:39;;;;;;;5.87;3.77;;;11.00;99.90;;;;;;5025795;28;20239;-78
2021/10/15 03:50:07;;;;;;;6.83;4.23;;;11.00;99.90;;;;;;5025823;28;20431;-78
2021/10/15 03:52:33;;;;;;;7.53;3.90;;;10.90;99.90;;;;;;5026966;28;20424;-78
2021/10/15 03:54:59;;;;;;;6.97;4.03;;;10.90;99.90;;;;;;5029093;28;20502;-77
2021/10/15 03:57:24;;;;;;;11.77;4.33;;;10.90;99.90;;;;;;5029383;28;20416;-78
2021/10/15 03:59:50;;;;;;;7.67;3.80;;;11.00;99.90;;;;;;5029333;28;20208;-78
2021/10/15 04:02:16;;;;;;;5.37;3.50;;;11.00;99.90;;;;;;5029170;28;20223;-78
2021/10/15 04:04:42;;;;;;;5.20;3.10;;;11.10;99.90;;;;;;5028978;28;20208;-78
2021/10/15 04:07:07;;;;;;;6.60;3.10;;;11.00;99.90;;;;;;5029191;28;20894;-77
2021/10/15 04:09:33;;;;;;;5.00;3.33;;;11.10;99.90;;;;;;5029026;28;20256;-78
2021/10/15 04:11:59;;;;;;;6.90;3.67;;;11.10;99.90;;;;;;5029092;28;20567;-77
2021/10/15 04:14:25;;;;;;;6.20;3.30;;;11.10;99.90;;;;;;5028829;28;20398;-78
2021/10/15 04:16:51;;;;;;;12.40;3.70;;;11.10;99.90;;;;;;5029097;28;20185;-78
2021/10/15 04:19:17;;;;;;;6.63;4.10;;;11.10;99.90;;;;;;5028753;28;20419;-78
2021/10/15 04:21:43;;;;;;;7.57;4.07;;;11.20;99.90;;;;;;5028815;28;20420;-78
2021/10/15 04:24:09;;;;;;;5.63;3.67;;;11.20;99.90;;;;;;5028530;28;20232;-78
2021/10/15 04:26:35;;;;;;;5.97;3.53;;;11.30;99.90;;;;;;5028779;28;20420;-78
2021/10/15 04:29:00;;;;;;;5.57;3.90;;;11.30;99.90;;;;;;5028667;28;20188;-77
2021/10/15 04:31:26;;;;;;;5.57;3.03;;;11.30;99.90;;;;;;5028782;28;20193;-77
2021/10/15 04:33:52;;;;;;;6.50;3.80;;;11.40;99.90;;;;;;5028331;28;20219;-78
2021/10/15 04:36:18;;;;;;;7.37;3.63;;;11.40;99.90;;;;;;5028563;28;20211;-77
2021/10/15 04:38:43;;;;;;;6.30;4.37;;;11.40;99.90;;;;;;5028602;28;20369;-78
2021/10/15 04:41:09;;;;;;;5.87;3.90;;;11.50;99.90;;;;;;5028306;28;20185;-78
2021/10/15 04:43:38;;;;;;;7.60;3.73;;;11.50;99.90;;;;;;5028362;28;20267;-78
2021/10/15 04:46:04;;;;;;;8.53;3.50;;;11.50;99.90;;;;;;5028074;28;20452;-78
2021/10/15 04:48:30;;;;;;;7.73;4.00;;;11.50;99.90;;;;;;5028373;28;20420;-78
2021/10/15 04:50:56;;;;;;;6.90;4.00;;;11.50;99.90;;;;;;5028228;28;20177;-78
2021/10/15 04:53:22;;;;;;;8.17;4.00;;;11.50;99.90;;;;;;5028198;28;20185;-78
2021/10/15 04:55:48;;;;;;;5.10;4.13;;;11.50;99.90;;;;;;5028050;28;20271;-78
2021/10/15 04:58:14;;;;;;;5.80;3.80;;;11.60;99.90;;;;;;5028209;28;20444;-77
2021/10/15 05:00:40;;;;;;;7.97;4.17;;;11.60;99.90;;;;;;5028069;28;20514;-78
2021/10/15 05:03:06;;;;;;;8.53;4.10;;;11.60;99.90;;;;;;5027459;28;20183;-78
2021/10/15 05:05:33;;;;;;;9.67;4.67;;;11.60;99.90;;;;;;5027906;28;20440;-78
2021/10/15 05:07:59;;;;;;;6.20;3.90;;;11.70;99.90;;;;;;5027965;28;20293;-78
2021/10/15 05:10:27;;;;;;;7.37;3.67;;;11.70;99.90;;;;;;5027894;28;20428;-78
2021/10/15 05:12:53;;;;;;;5.73;3.90;;;11.70;99.90;;;;;;5028066;28;21053;-78
2021/10/15 05:15:20;;;;;;;6.07;3.83;;;11.70;99.90;;;;;;5027802;28;20478;-78
2021/10/15 05:17:47;;;;;;;7.80;4.70;;;11.70;99.90;;;;;;5028123;28;21090;-78
2021/10/15 05:20:15;;;;;;;5.93;4.27;;;11.80;99.90;;;;;;5027831;28;20460;-78
2021/10/15 05:22:44;;;;;;;7.93;4.80;;;11.80;99.90;;;;;;5027434;28;20423;-77
2021/10/15 05:25:11;;;;;;;7.63;4.93;;;11.80;99.90;;;;;;5027644;28;20444;-77
2021/10/15 05:27:37;;;;;;;8.30;4.90;;;11.80;99.90;;;;;;5027582;28;20511;-77
2021/10/15 05:30:05;;;;;;;7.10;4.93;;;11.90;99.90;;;;;;5027540;28;20768;-77
2021/10/15 05:32:31;;;;;;;10.80;4.37;;;11.80;99.90;;;;;;5027477;28;20451;-78
2021/10/15 05:34:56;;;;;;;7.50;3.93;;;11.80;99.90;;;;;;5027607;28;20526;-77
2021/10/15 05:37:22;;;;;;;11.00;4.53;;;11.80;99.90;;;;;;5027479;28;20197;-77
2021/10/15 05:39:48;;;;;;;5.57;3.80;;;11.80;99.90;;;;;;5027508;28;20177;-77
2021/10/15 05:42:14;;;;;;;9.20;3.90;;;11.80;99.90;;;;;;5027250;28;20177;-76
2021/10/15 05:44:40;;;;;;;8.53;4.20;;;11.80;99.90;;;;;;5027181;28;20342;-77
2021/10/15 05:47:06;;;;;;;9.53;4.40;;;11.80;99.90;;;;;;5027098;28;20187;-77
2021/10/15 05:49:33;;;;;;;8.10;4.67;;;11.80;99.90;;;;;;5027255;28;20436;-77
2021/10/15 05:52:10;;;;;;;9.63;4.57;;;11.80;99.90;;;;;;5026992;28;20676;-78
2021/10/15 05:54:48;;;;;;;6.70;4.57;;;11.80;99.90;;;;;;5027067;28;20593;-77
2021/10/15 05:59:40;;;;;;;5.87;4.20;;;11.80;99.90;;;;;;5012190;28;20996;-78
2021/10/15 06:02:07;;;;;;;6.20;4.40;;;11.80;99.90;;;;;;5026970;28;20192;-79
2021/10/15 06:15:24;;;;;;;8.93;4.20;;;11.80;99.90;;;;;;5011033;28;20506;-78
2021/10/15 06:17:50;;;;;;;10.13;6.17;;;11.90;99.90;;;;;;5026671;28;20782;-77
2021/10/15 06:20:16;;;;;;;8.43;4.40;;;11.90;99.90;;;;;;5027841;28;20489;-80
2021/10/15 06:22:42;;;;;;;7.40;4.47;;;11.90;99.90;;;;;;5028372;28;20271;-77
2021/10/15 06:25:08;;;;;;;7.70;4.47;;;12.00;99.90;;;;;;5029649;28;20208;-77
2021/10/15 06:27:34;;;;;;;7.27;4.30;;;12.00;99.90;;;;;;5029136;28;20428;-79
2021/10/15 06:29:59;;;;;;;8.03;4.60;;;12.00;99.90;;;;;;5027149;28;20462;-78
2021/10/15 06:32:25;;;;;;;6.97;4.43;;;12.10;99.90;;;;;;5026776;28;20177;-79
2021/10/15 06:34:51;;;;;;;5.97;4.47;;;12.10;99.90;;;;;;5026602;28;20208;-79
2021/10/15 06:37:17;;;;;;;10.30;5.13;;;12.10;99.90;;;;;;5027192;28;20177;-79
2021/10/15 06:39:43;;;;;;;6.10;4.00;;;12.10;99.90;;;;;;5026827;28;20181;-79
2021/10/15 06:42:09;;;;;;;7.93;4.20;;;12.20;99.90;;;;;;5026415;28;20236;-79
2021/10/15 06:44:35;;;;;;;7.63;4.60;;;12.30;99.90;;;;;;5027187;28;20444;-80
2021/10/15 06:47:01;;;;;;;7.27;4.37;;;12.30;99.90;;;;;;5027382;28;20181;-80
2021/10/15 06:49:26;;;;;;;9.03;4.47;;;12.30;99.90;;;;;;5029453;28;20431;-79
2021/10/15 06:51:52;;;;;;;8.43;4.40;;;12.30;99.90;;;;;;5028349;28;20191;-80
2021/10/15 06:54:18;;;;;;;9.63;4.67;;;12.30;99.90;;;;;;5029296;28;20224;-79
2021/10/15 06:56:44;;;;;;;5.97;4.23;;;12.40;99.90;;;;;;5047603;22;20229;-87
2021/10/15 06:59:10;;;;;;;9.17;4.50;;;12.40;99.90;;;;;;5012048;28;20169;-87
2021/10/15 07:01:35;;;;;;;6.13;4.30;;;12.50;99.90;;;;;;5011801;28;20772;-87
2021/10/15 07:04:01;;;;;;;8.90;4.27;;;12.50;99.90;;;;;;5010754;28;20212;-87
2021/10/15 07:06:27;;;;;;;5.60;4.27;;;12.50;99.90;;;;;;5004309;28;20574;-87
2021/10/15 07:08:53;;;;;;;9.30;3.97;;;12.50;99.90;;;;;;4992386;28;20409;-87
2021/10/15 07:11:19;;;;;;;6.90;4.40;;;12.60;99.90;;;;;;4992405;28;20440;-86
2021/10/15 07:13:44;;;;;;;9.20;5.00;;;12.50;99.90;;;;;;4992012;28;20190;-86
2021/10/15 07:16:10;;;;;;;10.17;4.43;;;12.60;99.90;;;;;;4990842;28;20208;-86
2021/10/15 07:18:39;;;;;;;6.90;4.30;;;12.50;99.90;;;;;;4992440;28;20232;-87
2021/10/15 07:21:09;;;;;;;6.83;4.40;;;12.50;99.90;;;;;;4991102;28;20714;-87
2021/10/15 07:23:35;;;;;;;5.27;3.40;;;12.60;99.90;;;;;;4990595;28;20467;-87
2021/10/15 07:26:03;;;;;;;8.50;4.60;;;12.50;99.90;;;;;;4992596;28;20432;-86
2021/10/15 07:28:29;;;;;;;9.70;4.47;;;12.60;99.90;;;;;;4994809;28;20562;-86
2021/10/15 07:30:55;;;;;;;7.10;4.23;;;12.60;99.90;;;;;;4994641;28;20429;-87
2021/10/15 07:33:21;;;;;;;7.37;4.63;;;12.60;99.90;;;;;;4995566;28;20413;-87
2021/10/15 07:35:47;;;;;;;9.73;4.50;;;12.60;99.90;;;;;;5010780;28;20515;-87
2021/10/15 07:38:13;;;;;;;10.60;4.87;;;12.70;99.90;;;;;;4995822;28;20504;-87
2021/10/15 07:40:39;;;;;;;5.10;3.63;;;12.60;99.90;;;;;;4995846;28;20445;-86
2021/10/15 07:43:05;;;;;;;5.00;3.93;;;12.80;99.90;;;;;;4995324;28;20178;-87
2021/10/15 07:45:31;;;;;;;6.80;3.83;;;12.80;99.90;;;;;;4995640;28;20264;-87
2021/10/15 07:52:00;;;;;;;6.43;3.87;;;13.00;99.90;;;;;;4993525;28;20488;-85
2021/10/15 08:02:06;;;;;;;6.23;4.03;;;13.30;99.90;;;;;;4989241;28;20886;-85
2021/10/15 08:07:43;;;;;;;6.00;4.97;;;13.40;99.90;;;;;;5054638;23;20543;-82
2021/10/15 08:10:10;;;;;;;6.13;4.40;;;13.40;99.90;;;;;;5057202;28;20450;-82
2021/10/15 08:12:37;;;;;;;7.70;4.50;;;13.50;99.90;;;;;;5054796;28;20429;-83
2021/10/15 08:15:05;;;;;;;8.10;4.30;;;13.40;99.90;;;;;;5063012;28;20482;-83
2021/10/15 08:17:30;;;;;;;7.10;5.07;;;13.50;99.90;;;;;;5056055;28;20411;-83
2021/10/15 08:19:56;;;;;;;7.37;4.10;;;13.50;99.90;;;;;;5056013;28;20426;-83
2021/10/15 08:22:22;;;;;;;12.10;4.20;;;13.60;99.90;;;;;;5056225;28;20234;-83
2021/10/15 08:24:48;;;;;;;7.43;5.13;;;13.70;99.90;;;;;;5055510;28;20317;-82
2021/10/15 08:27:13;;;;;;;7.40;3.93;;;13.70;99.90;;;;;;5055818;28;20580;-83
2021/10/15 08:29:39;;;;;;;6.70;4.53;;;13.60;99.90;;;;;;5055384;28;20786;-82
2021/10/15 08:32:07;;;;;;;9.73;4.97;;;13.60;99.90;;;;;;5054476;28;20229;-83
2021/10/15 08:34:33;;;;;;;8.73;4.13;;;13.60;99.90;;;;;;5054829;28;20469;-82
2021/10/15 08:36:59;;;;;;;8.10;4.80;;;13.70;99.90;;;;;;5054270;28;20418;-83
2021/10/15 08:39:28;;;;;;;8.00;5.53;;;13.80;99.90;;;;;;5053174;28;20505;-82
2021/10/15 08:41:56;;;;;;;7.60;4.47;;;13.80;99.90;;;;;;5053736;28;20425;-84
2021/10/15 08:44:22;;;;;;;9.93;4.57;;;13.90;99.90;;;;;;5046530;28;20442;-83
2021/10/15 08:46:48;;;;;;;8.90;4.83;;;13.90;99.90;;;;;;5034722;28;20454;-84
2021/10/15 08:49:13;;;;;;;9.43;5.03;;;14.10;99.90;;;;;;5033997;28;20189;-83
2021/10/15 08:51:39;;;;;;;8.10;4.90;;;14.10;99.90;;;;;;5034101;28;20626;-82
2021/10/15 08:54:05;;;;;;;8.57;4.90;;;14.20;99.90;;;;;;5034201;28;20205;-83
2021/10/15 08:56:33;;;;;;;8.60;5.77;;;14.20;99.90;;;;;;5034221;28;20717;-83
2021/10/15 08:59:01;;;;;;;11.83;6.07;;;14.20;99.90;;;;;;5033747;28;20790;-82
2021/10/15 09:01:38;;;;;;;7.67;5.20;;;14.10;99.90;;;;;;5033915;28;20429;-83
2021/10/15 09:04:05;;;;;;;10.10;6.10;;;14.20;99.90;;;;;;5033921;28;20505;-82
2021/10/15 09:06:41;;;;;;;6.20;5.17;;;14.40;99.90;;;;;;5034240;28;20446;-83
2021/10/15 09:09:08;;;;;;;7.70;5.63;;;14.50;99.90;;;;;;5033620;28;20442;-83
2021/10/15 09:11:47;;;;;;;9.27;5.80;;;14.60;99.90;;;;;;5032978;28;20514;-82
2021/10/15 09:14:25;;;;;;;11.73;5.80;;;14.60;99.90;;;;;;5032766;28;20466;-82
2021/10/15 09:17:09;;;;;;;7.47;5.30;;;14.70;99.90;;;;;;5033271;28;20481;-81
2021/10/15 09:19:35;;;;;;;7.93;4.80;;;14.60;99.90;;;;;;5049391;28;20446;-83
2021/10/15 09:22:08;;;;;;;8.40;5.23;;;14.60;99.90;;;;;;5049288;28;20446;-82
2021/10/15 09:24:36;;;;;;;10.30;5.20;;;14.50;99.90;;;;;;5032558;28;20671;-82
2021/10/15 09:27:11;;;;;;;15.43;7.27;;;14.50;99.90;;;;;;5032347;28;20886;-81
2021/10/15 09:29:48;;;;;;;9.27;6.57;;;14.50;99.90;;;;;;5048907;28;20427;-82
2021/10/15 09:32:14;;;;;;;10.50;6.30;;;14.60;99.90;;;;;;5048863;28;20453;-82
2021/10/15 09:34:41;;;;;;;7.30;6.03;;;14.60;99.90;;;;;;5031826;28;20820;-81
2021/10/15 09:37:26;;;;;;;7.90;5.40;;;14.50;99.90;;;;;;5031720;28;20450;-82
2021/10/15 09:40:03;;;;;;;9.73;6.30;;;14.50;99.90;;;;;;5031673;28;20923;-83
2021/10/15 09:42:30;;;;;;;11.63;5.50;;;14.40;99.90;;;;;;5031950;28;20411;-81
2021/10/15 09:45:03;;;;;;;12.23;5.90;;;14.30;99.90;;;;;;5036457;28;20446;-81
2021/10/15 09:47:29;;;;;;;14.00;7.70;;;14.20;99.90;;;;;;5050617;28;20422;-80
2021/10/15 09:49:56;;;;;;;11.50;6.80;;;14.00;99.90;;;;;;5051240;28;20460;-80
2021/10/15 09:52:54;;;;;;;11.70;8.30;;;13.80;99.90;;;;;;5050618;28;20422;-80
2021/10/15 09:55:35;;;;;;;11.63;8.30;;;13.50;99.90;;;;;;5034592;28;21079;-80
2021/10/15 09:58:18;;;;;;;16.50;7.60;;;13.40;99.90;;;;;;5050857;28;20411;-79
2021/10/15 10:00:46;;;;;;;12.53;7.97;;;13.30;99.90;;;;;;5050550;28;20516;-80
2021/10/15 10:03:13;;;;;;;13.53;7.90;;;13.30;99.90;;;;;;5052878;28;20727;-81
2021/10/15 10:05:39;;;;;;;14.17;8.77;;;13.30;99.90;;;;;;5051714;28;20483;-80
2021/10/15 10:08:05;;;;;;;11.30;8.97;;;13.20;99.90;;;;;;5051030;28;20438;-79
2021/10/15 10:10:34;;;;;;;12.80;9.33;;;13.30;99.90;;;;;;5054559;28;20188;-79
2021/10/15 10:13:01;;;;;;;15.37;9.67;;;13.30;99.90;;;;;;5050693;28;20457;-80
2021/10/15 10:15:31;;;;;;;12.20;7.93;;;13.30;99.90;;;;;;5046202;28;20483;-81
2021/10/15 10:18:24;;;;;;;13.20;7.17;;;13.50;99.90;;;;;;5047935;28;20420;-79
2021/10/15 10:20:52;;;;;;;13.77;7.30;;;13.60;99.90;;;;;;5044641;28;20406;-78
2021/10/15 10:23:21;;;;;;;10.20;7.17;;;13.60;99.90;;;;;;5051873;28;21051;-79
2021/10/15 10:25:47;;;;;;;8.00;6.90;;;13.50;99.90;;;;;;5052275;28;20450;-79
2021/10/15 10:28:22;;;;;;;7.57;6.67;;;13.50;99.90;;;;;;5051716;28;20467;-79
2021/10/15 10:30:54;;;;;;;10.50;7.90;;;13.40;99.90;;;;;;5051811;28;20435;-79
2021/10/15 10:33:22;;;;;;;9.70;6.60;;;13.40;99.90;;;;;;5051742;28;20430;-80
2021/10/15 10:35:50;;;;;;;11.17;7.47;;;13.40;99.90;;;;;;5050821;28;20496;-80
2021/10/15 10:38:18;;;;;;;10.97;8.10;;;13.50;99.90;;;;;;5054060;28;20449;-80
2021/10/15 10:40:59;;;;;;;8.50;6.90;;;13.50;99.90;;;;;;5056724;28;20418;-80
2021/10/15 10:43:45;;;;;;;11.20;7.60;;;13.50;99.90;;;;;;5055922;28;20417;-80
2021/10/15 10:46:11;;;;;;;10.53;7.80;;;13.60;99.90;;;;;;5054691;28;20425;-80
2021/10/15 10:48:49;;;;;;;10.70;7.90;;;13.60;99.90;;;;;;5055432;28;20422;-80
2021/10/15 10:51:22;;;;;;;11.27;8.07;;;13.70;99.90;;;;;;5055329;28;20179;-79
2021/10/15 10:54:00;;;;;;;10.17;7.27;;;13.70;99.90;;;;;;5055299;28;20430;-79
2021/10/15 10:56:38;;;;;;;10.40;7.37;;;13.70;99.90;;;;;;5055012;28;20935;-80
2021/10/15 10:59:25;;;;;;;10.40;7.53;;;13.80;99.90;;;;;;5053982;28;21136;-81
2021/10/15 11:02:00;;;;;;;12.13;7.20;;;13.90;99.90;;;;;;5055964;28;20908;-80
2021/10/15 11:04:35;;;;;;;11.03;7.47;;;13.90;99.90;;;;;;5058364;28;20464;-81
2021/10/15 11:07:21;;;;;;;10.77;7.37;;;14.00;99.90;;;;;;5058284;28;20452;-79
2021/10/15 11:09:54;;;;;;;9.10;6.70;;;14.10;99.90;;;;;;5058259;28;20815;-80
2021/10/15 11:12:26;;;;;;;8.97;6.93;;;14.10;99.90;;;;;;5057461;28;20414;-80
2021/10/15 11:15:04;;;;;;;10.13;6.87;;;14.10;99.90;;;;;;5057502;28;20470;-80
2021/10/15 11:17:36;;;;;;;14.60;7.60;;;14.00;99.90;;;;;;5057644;28;20921;-79
2021/10/15 11:20:12;;;;;;;13.30;8.07;;;13.70;99.90;;;;;;5057037;28;20462;-79
2021/10/15 11:22:40;;;;;;;8.57;6.23;;;13.50;99.90;;;;;;5058796;28;20788;-80
2021/10/15 11:25:08;;;;;;;3.53;2.37;;;13.40;99.90;;;;;;5058069;28;20929;-79
2021/10/15 11:27:34;;;;;;;5.60;2.23;;;13.00;99.90;;;;;;5055634;28;20426;-78
2021/10/15 11:30:01;;;;;;;4.70;2.40;;;12.80;99.90;;;;;;5055806;28;20422;-78
2021/10/15 11:32:39;;;;;;;4.43;2.50;;;12.90;99.90;;;;;;5054793;28;20187;-78
2021/10/15 11:35:25;;;;;;;5.43;2.47;;;12.90;99.90;;;;;;5055279;28;20465;-77
2021/10/15 11:38:19;;;;;;;3.60;1.80;;;13.00;99.90;;;;;;5054930;28;20905;-78
2021/10/15 11:40:53;;;;;;;3.67;2.07;;;13.00;99.90;;;;;;5054400;28;20434;-78
2021/10/15 11:43:24;;;;;;;3.47;1.90;;;13.00;99.90;;;;;;5056128;28;20901;-78
2021/10/15 11:45:50;;;;;;;3.60;2.30;;;13.00;99.90;;;;;;5056583;28;20456;-79
2021/10/15 11:48:26;;;;;;;3.87;2.00;;;13.10;99.90;;;;;;5058217;28;20422;-79
2021/10/15 11:51:06;;;;;;;5.27;2.43;;;13.20;99.90;;;;;;5058849;28;20187;-79
2021/10/15 11:53:37;;;;;;;5.37;2.70;;;13.30;99.90;;;;;;5058918;28;20433;-79
2021/10/15 11:56:04;;;;;;;5.10;2.30;;;13.50;99.90;;;;;;5058463;28;20501;-79
2021/10/15 11:58:41;;;;;;;3.73;2.57;;;13.80;99.90;;;;;;5058280;28;20418;-79
2021/10/15 12:01:16;;;;;;;6.67;2.30;;;13.90;99.90;;;;;;5058172;28;20422;-79
2021/10/15 12:03:52;;;;;;;4.20;2.20;;;14.10;99.90;;;;;;5057916;28;20422;-79
2021/10/15 12:06:30;;;;;;;5.60;2.27;;;14.40;99.90;;;;;;5058040;28;20529;-79
2021/10/15 12:09:03;;;;;;;6.93;3.13;;;14.70;99.90;;;;;;5058128;28;20846;-80
2021/10/15 12:11:34;;;;;;;4.03;2.50;;;14.90;99.90;;;;;;5058265;28;20473;-80
2021/10/15 12:14:09;;;;;;;4.53;2.80;;;14.80;99.90;;;;;;5056988;28;20421;-79
2021/10/15 12:16:46;;;;;;;4.30;2.90;;;14.90;99.90;;;;;;5058714;28;20430;-79
2021/10/15 12:19:21;;;;;;;5.53;2.53;;;14.80;99.90;;;;;;5057412;28;20777;-79
2021/10/15 12:21:48;;;;;;;5.03;2.80;;;15.00;99.90;;;;;;5056079;28;20462;-79
2021/10/15 12:24:36;;;;;;;4.93;2.40;;;15.10;99.90;;;;;;5056913;28;20496;-79
2021/10/15 12:27:05;;;;;;;3.47;2.23;;;15.20;99.90;;;;;;5055926;28;20426;-78
2021/10/15 12:29:34;;;;;;;5.57;2.63;;;15.40;99.90;;;;;;5056511;28;20434;-79
2021/10/15 12:32:13;;;;;;;5.57;2.87;;;15.80;99.90;;;;;;5056305;28;20532;-79
2021/10/15 12:34:54;;;;;;;4.57;2.47;;;16.00;99.90;;;;;;5057256;28;20723;-79
2021/10/15 12:37:37;;;;;;;5.90;2.63;;;16.10;99.90;;;;;;5057488;28;20477;-79
2021/10/15 12:40:26;;;;;;;6.37;2.40;;;15.70;99.90;;;;;;5056437;28;20476;-79
2021/10/15 12:42:55;;;;;;;3.40;2.00;;;15.60;99.90;;;;;;5056920;28;20444;-79
2021/10/15 12:45:23;;;;;;;4.27;1.90;;;15.70;99.90;;;;;;5056426;28;20442;-79
2021/10/15 12:47:59;;;;;;;4.70;2.37;;;15.70;99.90;;;;;;5057762;28;20432;-79
2021/10/15 12:50:28;;;;;;;3.53;1.83;;;15.80;99.90;;;;;;5053609;28;20461;-79
2021/10/15 12:52:54;;;;;;;3.27;2.27;;;15.80;99.90;;;;;;5054403;28;20472;-79
2021/10/15 12:55:22;;;;;;;5.87;2.80;;;16.30;99.90;;;;;;5053463;28;20887;-79
2021/10/15 12:57:50;;;;;;;8.80;2.30;;;16.40;99.90;;;;;;5053219;28;20417;-79
2021/10/15 13:00:19;;;;;;;4.00;2.73;;;17.10;99.90;;;;;;5053667;28;20430;-79
2021/10/15 13:02:59;;;;;;;3.63;2.27;;;18.10;99.90;;;;;;5052952;28;20414;-79
2021/10/15 13:05:27;;;;;;;4.37;2.20;;;18.20;99.90;;;;;;5053286;28;20916;-79
2021/10/15 13:07:54;;;;;;;6.83;2.03;;;18.40;99.90;;;;;;5055411;28;20449;-78
2021/10/15 13:10:22;;;;;;;5.70;2.40;;;18.60;99.90;;;;;;5054233;28;20492;-79
2021/10/15 13:12:50;;;;;;;4.40;2.30;;;18.30;99.90;;;;;;5055916;28;20424;-79
2021/10/15 13:15:19;;;;;;;4.90;2.30;;;17.60;99.90;;;;;;5055894;28;20561;-79
2021/10/15 13:17:47;;;;;;;5.13;1.80;;;17.20;99.90;;;;;;5056780;28;20492;-79
2021/10/15 13:20:13;;;;;;;5.63;2.10;;;16.90;99.90;;;;;;5055426;28;20498;-79